sensor_id;sensor_type;location;lat;lon;timestamp;temperature;humidity
80250;DHT22;69561;37.974;23.708;2023-07-31T00:00:27;30.50;35.00
80250;DHT22;69561;37.974;23.708;2023-07-31T00:02:53;30.50;35.00
80250;DHT22;69561;37.974;23.708;2023-07-31T00:05:19;30.50;35.30
80250;DHT22;69561;37.974;23.708;2023-07-31T00:07:45;30.50;35.00
80250;DHT22;69561;37.974;23.708;2023-07-31T00:10:11;30.50;35.00
80250;DHT22;69561;37.974;23.708;2023-07-31T00:12:41;30.50;35.10
80250;DHT22;69561;37.974;23.708;2023-07-31T00:15:07;30.40;35.10
80250;DHT22;69561;37.974;23.708;2023-07-31T00:17:33;30.40;34.80
80250;DHT22;69561;37.974;23.708;2023-07-31T00:19:59;30.40;34.80
80250;DHT22;69561;37.974;23.708;2023-07-31T00:22:24;30.40;34.90
80250;DHT22;69561;37.974;23.708;2023-07-31T00:24:51;30.40;34.90
80250;DHT22;69561;37.974;23.708;2023-07-31T00:27:16;30.40;34.70
80250;DHT22;69561;37.974;23.708;2023-07-31T00:29:42;30.40;34.60
80250;DHT22;69561;37.974;23.708;2023-07-31T00:32:08;30.40;34.30
80250;DHT22;69561;37.974;23.708;2023-07-31T00:34:34;30.40;34.60
80250;DHT22;69561;37.974;23.708;2023-07-31T00:36:59;30.40;34.70
80250;DHT22;69561;37.974;23.708;2023-07-31T00:39:25;30.40;34.90
80250;DHT22;69561;37.974;23.708;2023-07-31T00:41:51;30.40;34.90
80250;DHT22;69561;37.974;23.708;2023-07-31T00:44:16;30.40;34.90
80250;DHT22;69561;37.974;23.708;2023-07-31T00:46:42;30.40;35.00
80250;DHT22;69561;37.974;23.708;2023-07-31T00:49:08;30.40;35.20
80250;DHT22;69561;37.974;23.708;2023-07-31T00:51:34;30.40;35.40
80250;DHT22;69561;37.974;23.708;2023-07-31T00:54:00;30.40;35.60
80250;DHT22;69561;37.974;23.708;2023-07-31T00:56:27;30.40;35.60
80250;DHT22;69561;37.974;23.708;2023-07-31T00:58:54;30.40;35.80
80250;DHT22;69561;37.974;23.708;2023-07-31T01:01:20;30.40;35.70
80250;DHT22;69561;37.974;23.708;2023-07-31T01:03:47;30.40;35.50
80250;DHT22;69561;37.974;23.708;2023-07-31T01:12:02;30.40;34.60
80250;DHT22;69561;37.974;23.708;2023-07-31T01:14:28;30.40;34.40
80250;DHT22;69561;37.974;23.708;2023-07-31T01:16:54;30.40;34.50
80250;DHT22;69561;37.974;23.708;2023-07-31T01:19:25;30.40;34.40
80250;DHT22;69561;37.974;23.708;2023-07-31T01:27:24;30.40;34.50
80250;DHT22;69561;37.974;23.708;2023-07-31T01:30:13;30.40;34.50
80250;DHT22;69561;37.974;23.708;2023-07-31T01:32:42;30.30;34.30
80250;DHT22;69561;37.974;23.708;2023-07-31T01:35:09;30.30;34.20
80250;DHT22;69561;37.974;23.708;2023-07-31T01:37:35;30.30;34.30
80250;DHT22;69561;37.974;23.708;2023-07-31T01:40:01;30.30;34.30
80250;DHT22;69561;37.974;23.708;2023-07-31T01:42:27;30.30;34.20
80250;DHT22;69561;37.974;23.708;2023-07-31T01:44:52;30.30;34.10
80250;DHT22;69561;37.974;23.708;2023-07-31T01:47:18;30.30;34.00
80250;DHT22;69561;37.974;23.708;2023-07-31T01:49:44;30.30;33.90
80250;DHT22;69561;37.974;23.708;2023-07-31T01:52:09;30.30;33.90
80250;DHT22;69561;37.974;23.708;2023-07-31T01:54:35;30.30;33.70
80250;DHT22;69561;37.974;23.708;2023-07-31T01:57:02;30.30;33.80
80250;DHT22;69561;37.974;23.708;2023-07-31T01:59:28;30.30;33.50
80250;DHT22;69561;37.974;23.708;2023-07-31T02:01:54;30.30;33.50
80250;DHT22;69561;37.974;23.708;2023-07-31T02:04:20;30.30;33.50
80250;DHT22;69561;37.974;23.708;2023-07-31T02:06:46;30.30;33.50
80250;DHT22;69561;37.974;23.708;2023-07-31T02:09:11;30.30;33.50
80250;DHT22;69561;37.974;23.708;2023-07-31T02:11:37;30.30;33.50
80250;DHT22;69561;37.974;23.708;2023-07-31T02:14:03;30.30;33.70
80250;DHT22;69561;37.974;23.708;2023-07-31T02:16:28;30.30;33.60
80250;DHT22;69561;37.974;23.708;2023-07-31T02:18:54;30.30;33.70
80250;DHT22;69561;37.974;23.708;2023-07-31T02:21:20;30.30;33.70
80250;DHT22;69561;37.974;23.708;2023-07-31T02:23:45;30.30;33.80
80250;DHT22;69561;37.974;23.708;2023-07-31T02:26:11;30.30;33.70
80250;DHT22;69561;37.974;23.708;2023-07-31T02:28:37;30.30;33.70
80250;DHT22;69561;37.974;23.708;2023-07-31T02:31:03;30.30;33.70
80250;DHT22;69561;37.974;23.708;2023-07-31T02:33:28;30.30;33.90
80250;DHT22;69561;37.974;23.708;2023-07-31T02:35:54;30.30;33.90
80250;DHT22;69561;37.974;23.708;2023-07-31T02:38:20;30.30;34.00
80250;DHT22;69561;37.974;23.708;2023-07-31T02:40:45;30.30;34.10
80250;DHT22;69561;37.974;23.708;2023-07-31T02:43:11;30.30;34.00
80250;DHT22;69561;37.974;23.708;2023-07-31T02:45:37;30.30;33.90
80250;DHT22;69561;37.974;23.708;2023-07-31T02:48:02;30.20;33.90
80250;DHT22;69561;37.974;23.708;2023-07-31T02:50:28;30.20;34.10
80250;DHT22;69561;37.974;23.708;2023-07-31T02:52:54;30.20;34.30
80250;DHT22;69561;37.974;23.708;2023-07-31T02:55:20;30.20;34.30
80250;DHT22;69561;37.974;23.708;2023-07-31T02:57:45;30.30;34.50
80250;DHT22;69561;37.974;23.708;2023-07-31T03:00:12;30.20;34.30
80250;DHT22;69561;37.974;23.708;2023-07-31T03:02:38;30.20;34.40
80250;DHT22;69561;37.974;23.708;2023-07-31T03:05:04;30.30;34.40
80250;DHT22;69561;37.974;23.708;2023-07-31T03:07:30;30.30;34.50
80250;DHT22;69561;37.974;23.708;2023-07-31T03:09:56;30.30;34.50
80250;DHT22;69561;37.974;23.708;2023-07-31T03:12:22;30.30;34.60
80250;DHT22;69561;37.974;23.708;2023-07-31T03:14:47;30.30;34.60
80250;DHT22;69561;37.974;23.708;2023-07-31T03:17:13;30.20;34.50
80250;DHT22;69561;37.974;23.708;2023-07-31T03:19:39;30.30;34.60
80250;DHT22;69561;37.974;23.708;2023-07-31T03:22:05;30.20;34.50
80250;DHT22;69561;37.974;23.708;2023-07-31T03:24:30;30.20;34.40
80250;DHT22;69561;37.974;23.708;2023-07-31T03:26:56;30.20;34.50
80250;DHT22;69561;37.974;23.708;2023-07-31T03:29:22;30.20;34.50
80250;DHT22;69561;37.974;23.708;2023-07-31T03:31:47;30.30;34.60
80250;DHT22;69561;37.974;23.708;2023-07-31T03:34:13;30.30;34.60
80250;DHT22;69561;37.974;23.708;2023-07-31T03:36:39;30.20;34.70
80250;DHT22;69561;37.974;23.708;2023-07-31T03:39:04;30.30;34.70
80250;DHT22;69561;37.974;23.708;2023-07-31T03:41:30;30.30;34.80
80250;DHT22;69561;37.974;23.708;2023-07-31T03:43:56;30.30;35.00
80250;DHT22;69561;37.974;23.708;2023-07-31T03:46:22;30.30;35.10
80250;DHT22;69561;37.974;23.708;2023-07-31T03:48:48;30.30;35.20
80250;DHT22;69561;37.974;23.708;2023-07-31T03:51:14;30.20;35.40
80250;DHT22;69561;37.974;23.708;2023-07-31T03:53:40;30.20;35.40
80250;DHT22;69561;37.974;23.708;2023-07-31T03:56:05;30.30;35.60
80250;DHT22;69561;37.974;23.708;2023-07-31T03:58:31;30.40;35.60
80250;DHT22;69561;37.974;23.708;2023-07-31T04:00:57;30.50;35.40
80250;DHT22;69561;37.974;23.708;2023-07-31T04:03:23;30.70;35.30
80250;DHT22;69561;37.974;23.708;2023-07-31T04:05:48;30.90;35.10
80250;DHT22;69561;37.974;23.708;2023-07-31T04:08:14;31.10;34.90
80250;DHT22;69561;37.974;23.708;2023-07-31T04:10:40;31.30;34.70
80250;DHT22;69561;37.974;23.708;2023-07-31T04:13:05;31.50;34.50
80250;DHT22;69561;37.974;23.708;2023-07-31T04:15:31;31.70;34.40
80250;DHT22;69561;37.974;23.708;2023-07-31T04:17:57;31.80;34.90
80250;DHT22;69561;37.974;23.708;2023-07-31T04:20:22;31.80;37.20
80250;DHT22;69561;37.974;23.708;2023-07-31T04:22:49;31.70;36.40
80250;DHT22;69561;37.974;23.708;2023-07-31T04:25:14;31.50;36.30
80250;DHT22;69561;37.974;23.708;2023-07-31T04:27:40;31.30;36.50
80250;DHT22;69561;37.974;23.708;2023-07-31T04:30:06;31.20;36.70
80250;DHT22;69561;37.974;23.708;2023-07-31T04:32:32;31.10;36.70
80250;DHT22;69561;37.974;23.708;2023-07-31T04:34:58;31.10;36.80
80250;DHT22;69561;37.974;23.708;2023-07-31T04:37:23;31.00;36.80
80250;DHT22;69561;37.974;23.708;2023-07-31T04:39:49;31.10;36.70
80250;DHT22;69561;37.974;23.708;2023-07-31T04:42:15;31.20;36.50
80250;DHT22;69561;37.974;23.708;2023-07-31T04:44:40;31.30;36.30
80250;DHT22;69561;37.974;23.708;2023-07-31T04:47:06;31.40;35.90
80250;DHT22;69561;37.974;23.708;2023-07-31T04:49:32;31.80;35.50
80250;DHT22;69561;37.974;23.708;2023-07-31T04:51:58;32.30;34.90
80250;DHT22;69561;37.974;23.708;2023-07-31T04:54:24;32.60;34.40
80250;DHT22;69561;37.974;23.708;2023-07-31T04:56:49;32.60;34.20
80250;DHT22;69561;37.974;23.708;2023-07-31T04:59:15;32.50;34.30
80250;DHT22;69561;37.974;23.708;2023-07-31T05:01:41;32.40;34.50
80250;DHT22;69561;37.974;23.708;2023-07-31T05:04:07;32.20;34.60
80250;DHT22;69561;37.974;23.708;2023-07-31T05:06:32;32.10;35.80
80250;DHT22;69561;37.974;23.708;2023-07-31T05:08:58;31.90;34.70
80250;DHT22;69561;37.974;23.708;2023-07-31T05:11:24;31.80;34.90
80250;DHT22;69561;37.974;23.708;2023-07-31T05:13:49;31.80;35.00
80250;DHT22;69561;37.974;23.708;2023-07-31T05:16:15;31.60;35.10
80250;DHT22;69561;37.974;23.708;2023-07-31T05:18:41;31.60;35.20
80250;DHT22;69561;37.974;23.708;2023-07-31T05:21:07;31.60;35.20
80250;DHT22;69561;37.974;23.708;2023-07-31T05:23:32;31.60;35.10
80250;DHT22;69561;37.974;23.708;2023-07-31T05:26:07;31.50;35.20
80250;DHT22;69561;37.974;23.708;2023-07-31T05:28:35;31.50;35.30
80250;DHT22;69561;37.974;23.708;2023-07-31T05:31:02;31.40;35.30
80250;DHT22;69561;37.974;23.708;2023-07-31T05:33:28;31.40;35.40
80250;DHT22;69561;37.974;23.708;2023-07-31T05:35:54;31.30;35.40
80250;DHT22;69561;37.974;23.708;2023-07-31T05:38:20;31.30;35.40
80250;DHT22;69561;37.974;23.708;2023-07-31T05:40:46;31.30;35.50
80250;DHT22;69561;37.974;23.708;2023-07-31T05:43:13;31.20;35.50
80250;DHT22;69561;37.974;23.708;2023-07-31T05:45:40;31.20;35.50
80250;DHT22;69561;37.974;23.708;2023-07-31T05:48:06;31.20;35.50
80250;DHT22;69561;37.974;23.708;2023-07-31T05:50:31;31.10;35.40
80250;DHT22;69561;37.974;23.708;2023-07-31T05:52:57;31.10;35.50
80250;DHT22;69561;37.974;23.708;2023-07-31T05:55:24;31.10;35.60
80250;DHT22;69561;37.974;23.708;2023-07-31T05:57:52;31.00;35.50
80250;DHT22;69561;37.974;23.708;2023-07-31T06:00:18;31.00;36.70
80250;DHT22;69561;37.974;23.708;2023-07-31T06:02:44;31.00;35.60
80250;DHT22;69561;37.974;23.708;2023-07-31T06:05:09;30.90;35.70
80250;DHT22;69561;37.974;23.708;2023-07-31T06:07:35;30.90;35.80
80250;DHT22;69561;37.974;23.708;2023-07-31T06:10:01;30.90;35.70
80250;DHT22;69561;37.974;23.708;2023-07-31T06:12:33;30.90;35.70
80250;DHT22;69561;37.974;23.708;2023-07-31T06:14:59;30.80;35.50
80250;DHT22;69561;37.974;23.708;2023-07-31T06:17:25;30.80;35.40
80250;DHT22;69561;37.974;23.708;2023-07-31T06:19:54;30.80;35.40
80250;DHT22;69561;37.974;23.708;2023-07-31T06:22:20;30.70;35.50
80250;DHT22;69561;37.974;23.708;2023-07-31T06:24:46;30.70;35.40
80250;DHT22;69561;37.974;23.708;2023-07-31T06:27:12;30.70;35.20
80250;DHT22;69561;37.974;23.708;2023-07-31T06:29:37;30.70;35.20
80250;DHT22;69561;37.974;23.708;2023-07-31T06:32:03;30.70;35.20
80250;DHT22;69561;37.974;23.708;2023-07-31T06:34:29;30.70;35.30
80250;DHT22;69561;37.974;23.708;2023-07-31T06:36:56;30.70;35.20
80250;DHT22;69561;37.974;23.708;2023-07-31T06:39:22;30.60;35.30
80250;DHT22;69561;37.974;23.708;2023-07-31T06:41:47;30.60;35.30
80250;DHT22;69561;37.974;23.708;2023-07-31T06:44:13;30.60;35.40
80250;DHT22;69561;37.974;23.708;2023-07-31T06:46:39;30.60;35.30
80250;DHT22;69561;37.974;23.708;2023-07-31T06:49:04;30.60;35.30
80250;DHT22;69561;37.974;23.708;2023-07-31T06:51:30;30.60;35.30
80250;DHT22;69561;37.974;23.708;2023-07-31T06:53:57;30.60;35.40
80250;DHT22;69561;37.974;23.708;2023-07-31T06:56:23;30.60;35.40
80250;DHT22;69561;37.974;23.708;2023-07-31T06:58:49;30.50;35.30
80250;DHT22;69561;37.974;23.708;2023-07-31T07:01:15;30.50;35.40
80250;DHT22;69561;37.974;23.708;2023-07-31T07:03:40;30.50;35.40
80250;DHT22;69561;37.974;23.708;2023-07-31T07:06:06;30.50;35.60
80250;DHT22;69561;37.974;23.708;2023-07-31T07:08:32;30.50;35.70
80250;DHT22;69561;37.974;23.708;2023-07-31T07:10:58;30.50;35.60
80250;DHT22;69561;37.974;23.708;2023-07-31T07:13:23;30.50;35.50
80250;DHT22;69561;37.974;23.708;2023-07-31T07:15:49;30.50;35.60
80250;DHT22;69561;37.974;23.708;2023-07-31T07:18:15;30.60;35.60
80250;DHT22;69561;37.974;23.708;2023-07-31T07:20:49;30.50;35.60
80250;DHT22;69561;37.974;23.708;2023-07-31T07:23:15;30.50;35.50
80250;DHT22;69561;37.974;23.708;2023-07-31T07:25:42;30.50;35.60
80250;DHT22;69561;37.974;23.708;2023-07-31T07:28:08;30.40;35.50
80250;DHT22;69561;37.974;23.708;2023-07-31T07:30:34;30.50;35.60
80250;DHT22;69561;37.974;23.708;2023-07-31T07:33:00;30.40;35.70
80250;DHT22;69561;37.974;23.708;2023-07-31T07:35:26;30.40;35.70
80250;DHT22;69561;37.974;23.708;2023-07-31T07:37:51;30.40;35.70
80250;DHT22;69561;37.974;23.708;2023-07-31T07:40:17;30.40;35.60
80250;DHT22;69561;37.974;23.708;2023-07-31T07:42:43;30.40;35.50
80250;DHT22;69561;37.974;23.708;2023-07-31T07:45:09;30.40;35.70
80250;DHT22;69561;37.974;23.708;2023-07-31T07:47:35;30.40;35.70
80250;DHT22;69561;37.974;23.708;2023-07-31T07:50:00;30.40;35.80
80250;DHT22;69561;37.974;23.708;2023-07-31T07:52:26;30.40;35.70
80250;DHT22;69561;37.974;23.708;2023-07-31T07:54:52;30.40;35.40
80250;DHT22;69561;37.974;23.708;2023-07-31T07:57:17;30.30;35.30
80250;DHT22;69561;37.974;23.708;2023-07-31T07:59:44;30.30;35.50
80250;DHT22;69561;37.974;23.708;2023-07-31T08:02:09;30.30;35.60
80250;DHT22;69561;37.974;23.708;2023-07-31T08:04:35;30.30;35.50
80250;DHT22;69561;37.974;23.708;2023-07-31T08:07:01;30.30;35.60
80250;DHT22;69561;37.974;23.708;2023-07-31T08:09:26;30.30;35.80
80250;DHT22;69561;37.974;23.708;2023-07-31T08:11:52;30.30;35.70
80250;DHT22;69561;37.974;23.708;2023-07-31T08:14:18;30.20;35.60
80250;DHT22;69561;37.974;23.708;2023-07-31T08:16:43;30.30;35.60
80250;DHT22;69561;37.974;23.708;2023-07-31T08:19:09;30.20;35.50
80250;DHT22;69561;37.974;23.708;2023-07-31T08:21:35;30.30;35.50
80250;DHT22;69561;37.974;23.708;2023-07-31T08:24:00;30.30;35.60
80250;DHT22;69561;37.974;23.708;2023-07-31T08:26:26;30.30;35.60
80250;DHT22;69561;37.974;23.708;2023-07-31T08:28:52;30.20;35.40
80250;DHT22;69561;37.974;23.708;2023-07-31T08:31:18;30.30;35.50
80250;DHT22;69561;37.974;23.708;2023-07-31T08:33:44;30.30;35.40
80250;DHT22;69561;37.974;23.708;2023-07-31T08:36:09;30.30;35.40
80250;DHT22;69561;37.974;23.708;2023-07-31T08:38:35;30.30;35.40
80250;DHT22;69561;37.974;23.708;2023-07-31T08:41:03;30.30;35.40
80250;DHT22;69561;37.974;23.708;2023-07-31T08:43:30;30.30;35.40
80250;DHT22;69561;37.974;23.708;2023-07-31T08:45:56;30.30;35.20
80250;DHT22;69561;37.974;23.708;2023-07-31T08:48:23;30.30;35.20
80250;DHT22;69561;37.974;23.708;2023-07-31T08:50:50;30.30;35.30
80250;DHT22;69561;37.974;23.708;2023-07-31T08:53:15;30.20;35.40
80250;DHT22;69561;37.974;23.708;2023-07-31T08:55:43;30.20;35.30
80250;DHT22;69561;37.974;23.708;2023-07-31T08:58:10;30.20;35.30
80250;DHT22;69561;37.974;23.708;2023-07-31T09:00:38;30.20;35.30
80250;DHT22;69561;37.974;23.708;2023-07-31T09:03:11;30.20;35.30
80250;DHT22;69561;37.974;23.708;2023-07-31T09:05:39;30.20;35.20
80250;DHT22;69561;37.974;23.708;2023-07-31T09:08:07;30.20;35.40
80250;DHT22;69561;37.974;23.708;2023-07-31T09:10:34;30.20;35.60
80250;DHT22;69561;37.974;23.708;2023-07-31T09:13:00;30.20;35.80
80250;DHT22;69561;37.974;23.708;2023-07-31T09:15:27;30.20;35.80
80250;DHT22;69561;37.974;23.708;2023-07-31T09:18:01;30.20;35.70
80250;DHT22;69561;37.974;23.708;2023-07-31T09:20:27;30.20;35.60
80250;DHT22;69561;37.974;23.708;2023-07-31T09:22:53;30.20;35.70
80250;DHT22;69561;37.974;23.708;2023-07-31T09:25:26;30.20;35.60
80250;DHT22;69561;37.974;23.708;2023-07-31T09:27:58;30.20;35.80
80250;DHT22;69561;37.974;23.708;2023-07-31T09:30:25;30.10;35.90
80250;DHT22;69561;37.974;23.708;2023-07-31T09:32:52;30.10;36.00
80250;DHT22;69561;37.974;23.708;2023-07-31T09:35:29;30.00;36.60
80250;DHT22;69561;37.974;23.708;2023-07-31T09:38:00;29.90;37.00
80250;DHT22;69561;37.974;23.708;2023-07-31T09:40:33;29.90;37.50
80250;DHT22;69561;37.974;23.708;2023-07-31T09:43:07;29.80;38.20
80250;DHT22;69561;37.974;23.708;2023-07-31T09:45:38;29.90;39.00
80250;DHT22;69561;37.974;23.708;2023-07-31T09:48:08;29.80;39.80
80250;DHT22;69561;37.974;23.708;2023-07-31T09:50:38;29.80;40.40
80250;DHT22;69561;37.974;23.708;2023-07-31T09:53:05;29.80;40.60
80250;DHT22;69561;37.974;23.708;2023-07-31T09:55:31;29.80;40.80
80250;DHT22;69561;37.974;23.708;2023-07-31T09:58:02;29.80;41.10
80250;DHT22;69561;37.974;23.708;2023-07-31T10:00:30;29.70;41.20
80250;DHT22;69561;37.974;23.708;2023-07-31T10:02:59;29.80;41.40
80250;DHT22;69561;37.974;23.708;2023-07-31T10:05:43;29.70;41.50
80250;DHT22;69561;37.974;23.708;2023-07-31T10:08:13;29.80;41.70
80250;DHT22;69561;37.974;23.708;2023-07-31T10:10:44;29.70;41.90
80250;DHT22;69561;37.974;23.708;2023-07-31T10:13:10;29.60;42.00
80250;DHT22;69561;37.974;23.708;2023-07-31T10:15:36;29.60;42.10
80250;DHT22;69561;37.974;23.708;2023-07-31T10:18:02;29.60;42.10
80250;DHT22;69561;37.974;23.708;2023-07-31T10:20:31;29.60;42.30
80250;DHT22;69561;37.974;23.708;2023-07-31T10:22:58;29.60;42.40
80250;DHT22;69561;37.974;23.708;2023-07-31T10:25:26;29.60;42.50
80250;DHT22;69561;37.974;23.708;2023-07-31T10:27:53;29.60;42.50
80250;DHT22;69561;37.974;23.708;2023-07-31T10:30:22;29.60;42.60
80250;DHT22;69561;37.974;23.708;2023-07-31T10:32:51;29.50;42.50
80250;DHT22;69561;37.974;23.708;2023-07-31T10:35:18;29.50;42.60
80250;DHT22;69561;37.974;23.708;2023-07-31T10:37:44;29.50;42.60
80250;DHT22;69561;37.974;23.708;2023-07-31T10:40:16;29.50;42.50
80250;DHT22;69561;37.974;23.708;2023-07-31T10:42:53;29.50;42.50
80250;DHT22;69561;37.974;23.708;2023-07-31T10:45:30;29.50;42.50
80250;DHT22;69561;37.974;23.708;2023-07-31T10:50:26;29.40;42.30
80250;DHT22;69561;37.974;23.708;2023-07-31T10:52:54;29.30;42.10
80250;DHT22;69561;37.974;23.708;2023-07-31T10:55:30;29.30;41.90
80250;DHT22;69561;37.974;23.708;2023-07-31T10:58:06;29.30;41.80
80250;DHT22;69561;37.974;23.708;2023-07-31T11:00:33;29.30;41.60
80250;DHT22;69561;37.974;23.708;2023-07-31T11:03:01;29.30;41.50
80250;DHT22;69561;37.974;23.708;2023-07-31T11:08:22;29.20;41.50
80250;DHT22;69561;37.974;23.708;2023-07-31T11:10:50;29.20;41.60
80250;DHT22;69561;37.974;23.708;2023-07-31T11:13:17;29.20;41.80
80250;DHT22;69561;37.974;23.708;2023-07-31T11:15:42;29.20;42.00
80250;DHT22;69561;37.974;23.708;2023-07-31T11:18:08;29.20;42.00
80250;DHT22;69561;37.974;23.708;2023-07-31T11:20:37;29.10;42.30
80250;DHT22;69561;37.974;23.708;2023-07-31T11:23:06;29.10;42.10
80250;DHT22;69561;37.974;23.708;2023-07-31T11:25:32;29.10;42.10
80250;DHT22;69561;37.974;23.708;2023-07-31T11:28:06;29.10;42.20
80250;DHT22;69561;37.974;23.708;2023-07-31T11:30:32;29.10;42.20
80250;DHT22;69561;37.974;23.708;2023-07-31T11:33:00;29.10;42.40
80250;DHT22;69561;37.974;23.708;2023-07-31T11:35:32;29.10;42.50
80250;DHT22;69561;37.974;23.708;2023-07-31T11:37:57;29.10;42.50
80250;DHT22;69561;37.974;23.708;2023-07-31T11:40:23;29.10;42.50
80250;DHT22;69561;37.974;23.708;2023-07-31T11:42:57;29.10;43.60
80250;DHT22;69561;37.974;23.708;2023-07-31T11:45:27;29.10;42.60
80250;DHT22;69561;37.974;23.708;2023-07-31T11:47:55;29.10;42.70
80250;DHT22;69561;37.974;23.708;2023-07-31T11:50:22;29.10;42.70
80250;DHT22;69561;37.974;23.708;2023-07-31T11:52:57;29.10;43.00
80250;DHT22;69561;37.974;23.708;2023-07-31T11:55:25;29.10;43.10
80250;DHT22;69561;37.974;23.708;2023-07-31T11:57:52;29.10;43.10
80250;DHT22;69561;37.974;23.708;2023-07-31T12:00:19;29.10;43.20
80250;DHT22;69561;37.974;23.708;2023-07-31T12:02:45;29.10;43.00
80250;DHT22;69561;37.974;23.708;2023-07-31T12:05:12;29.10;43.10
80250;DHT22;69561;37.974;23.708;2023-07-31T12:08:08;29.10;42.80
80250;DHT22;69561;37.974;23.708;2023-07-31T12:10:34;29.10;42.50
80250;DHT22;69561;37.974;23.708;2023-07-31T12:13:01;29.20;42.50
80250;DHT22;69561;37.974;23.708;2023-07-31T12:15:45;29.20;42.30
80250;DHT22;69561;37.974;23.708;2023-07-31T12:18:13;29.20;42.10
80250;DHT22;69561;37.974;23.708;2023-07-31T12:20:46;29.30;42.10
80250;DHT22;69561;37.974;23.708;2023-07-31T12:23:21;29.30;42.10
80250;DHT22;69561;37.974;23.708;2023-07-31T12:26:14;29.30;42.10
80250;DHT22;69561;37.974;23.708;2023-07-31T12:31:12;29.30;42.00
80250;DHT22;69561;37.974;23.708;2023-07-31T12:33:38;29.40;42.00
80250;DHT22;69561;37.974;23.708;2023-07-31T12:36:12;29.40;42.00
80250;DHT22;69561;37.974;23.708;2023-07-31T12:38:38;29.40;41.90
80250;DHT22;69561;37.974;23.708;2023-07-31T12:41:04;29.40;41.90
80250;DHT22;69561;37.974;23.708;2023-07-31T12:43:31;29.40;42.10
80250;DHT22;69561;37.974;23.708;2023-07-31T12:45:57;29.50;42.60
80250;DHT22;69561;37.974;23.708;2023-07-31T12:48:23;29.50;42.10
80250;DHT22;69561;37.974;23.708;2023-07-31T12:50:49;29.50;42.20
80250;DHT22;69561;37.974;23.708;2023-07-31T12:53:17;29.50;42.20
80250;DHT22;69561;37.974;23.708;2023-07-31T12:55:43;29.60;42.40
80250;DHT22;69561;37.974;23.708;2023-07-31T12:58:09;29.60;42.40
80250;DHT22;69561;37.974;23.708;2023-07-31T13:00:35;29.70;42.50
80250;DHT22;69561;37.974;23.708;2023-07-31T13:03:01;29.70;42.40
80250;DHT22;69561;37.974;23.708;2023-07-31T13:05:27;29.70;42.40
80250;DHT22;69561;37.974;23.708;2023-07-31T13:07:53;29.80;43.60
80250;DHT22;69561;37.974;23.708;2023-07-31T13:10:19;29.80;42.70
80250;DHT22;69561;37.974;23.708;2023-07-31T13:12:45;29.80;42.60
80250;DHT22;69561;37.974;23.708;2023-07-31T13:15:12;29.80;42.70
80250;DHT22;69561;37.974;23.708;2023-07-31T13:17:37;29.80;42.70
80250;DHT22;69561;37.974;23.708;2023-07-31T13:20:04;29.80;42.70
80250;DHT22;69561;37.974;23.708;2023-07-31T13:22:30;29.80;42.80
80250;DHT22;69561;37.974;23.708;2023-07-31T13:24:56;29.80;43.00
80250;DHT22;69561;37.974;23.708;2023-07-31T13:27:21;29.90;43.10
80250;DHT22;69561;37.974;23.708;2023-07-31T13:29:51;29.90;43.10
80250;DHT22;69561;37.974;23.708;2023-07-31T13:32:18;29.90;43.10
80250;DHT22;69561;37.974;23.708;2023-07-31T13:34:44;29.90;43.10
80250;DHT22;69561;37.974;23.708;2023-07-31T13:37:10;29.90;43.20
80250;DHT22;69561;37.974;23.708;2023-07-31T13:39:35;29.90;43.20
80250;DHT22;69561;37.974;23.708;2023-07-31T13:42:05;29.90;43.30
80250;DHT22;69561;37.974;23.708;2023-07-31T13:44:37;29.90;43.40
80250;DHT22;69561;37.974;23.708;2023-07-31T13:47:03;29.90;43.70
80250;DHT22;69561;37.974;23.708;2023-07-31T13:49:30;29.90;43.80
80250;DHT22;69561;37.974;23.708;2023-07-31T13:51:56;29.90;43.80
80250;DHT22;69561;37.974;23.708;2023-07-31T13:54:25;29.90;43.90
80250;DHT22;69561;37.974;23.708;2023-07-31T13:56:54;30.00;43.90
80250;DHT22;69561;37.974;23.708;2023-07-31T13:59:20;30.00;44.00
80250;DHT22;69561;37.974;23.708;2023-07-31T14:01:46;30.00;44.20
80250;DHT22;69561;37.974;23.708;2023-07-31T14:04:12;30.00;44.20
80250;DHT22;69561;37.974;23.708;2023-07-31T14:06:38;30.00;44.30
80250;DHT22;69561;37.974;23.708;2023-07-31T14:09:04;30.00;44.60
80250;DHT22;69561;37.974;23.708;2023-07-31T14:11:33;30.00;44.70
80250;DHT22;69561;37.974;23.708;2023-07-31T14:13:59;30.00;44.80
80250;DHT22;69561;37.974;23.708;2023-07-31T14:16:25;30.00;44.80
80250;DHT22;69561;37.974;23.708;2023-07-31T14:18:50;30.00;44.90
80250;DHT22;69561;37.974;23.708;2023-07-31T14:21:16;30.10;44.90
80250;DHT22;69561;37.974;23.708;2023-07-31T14:23:44;30.10;44.80
80250;DHT22;69561;37.974;23.708;2023-07-31T14:26:10;30.00;44.70
80250;DHT22;69561;37.974;23.708;2023-07-31T14:28:36;30.10;44.60
80250;DHT22;69561;37.974;23.708;2023-07-31T14:31:02;30.10;44.70
80250;DHT22;69561;37.974;23.708;2023-07-31T14:33:27;30.10;44.60
80250;DHT22;69561;37.974;23.708;2023-07-31T14:35:53;30.20;44.50
80250;DHT22;69561;37.974;23.708;2023-07-31T14:38:19;30.20;44.40
80250;DHT22;69561;37.974;23.708;2023-07-31T14:40:45;30.20;44.40
80250;DHT22;69561;37.974;23.708;2023-07-31T14:43:11;30.20;44.30
80250;DHT22;69561;37.974;23.708;2023-07-31T14:45:36;30.20;44.30
80250;DHT22;69561;37.974;23.708;2023-07-31T14:48:02;30.10;44.30
80250;DHT22;69561;37.974;23.708;2023-07-31T14:50:28;30.10;44.30
80250;DHT22;69561;37.974;23.708;2023-07-31T14:52:54;30.10;44.30
80250;DHT22;69561;37.974;23.708;2023-07-31T14:55:20;30.10;44.30
80250;DHT22;69561;37.974;23.708;2023-07-31T14:57:46;30.10;44.30
80250;DHT22;69561;37.974;23.708;2023-07-31T15:00:12;30.10;44.30
80250;DHT22;69561;37.974;23.708;2023-07-31T15:02:38;30.10;44.30
80250;DHT22;69561;37.974;23.708;2023-07-31T15:05:04;30.10;44.30
80250;DHT22;69561;37.974;23.708;2023-07-31T15:07:30;30.10;44.30
80250;DHT22;69561;37.974;23.708;2023-07-31T15:09:56;30.10;44.20
80250;DHT22;69561;37.974;23.708;2023-07-31T15:12:22;30.10;44.10
80250;DHT22;69561;37.974;23.708;2023-07-31T15:14:48;30.10;44.20
80250;DHT22;69561;37.974;23.708;2023-07-31T15:17:14;30.10;44.00
80250;DHT22;69561;37.974;23.708;2023-07-31T15:19:40;30.10;44.00
80250;DHT22;69561;37.974;23.708;2023-07-31T15:22:06;30.10;44.00
80250;DHT22;69561;37.974;23.708;2023-07-31T15:24:32;30.10;44.00
80250;DHT22;69561;37.974;23.708;2023-07-31T15:26:58;30.20;44.00
80250;DHT22;69561;37.974;23.708;2023-07-31T15:29:24;30.20;44.00
80250;DHT22;69561;37.974;23.708;2023-07-31T15:31:50;30.30;44.10